sensor_id;sensor_type;location;lat;lon;timestamp;pressure;altitude;pressure_sealevel;temperature;humidity
61014;BME280;46899;47.542;19.082;2023-02-12T00:01:08;101751.87;;;2.81;100.00
61014;BME280;46899;47.542;19.082;2023-02-12T00:04:11;101753.06;;;2.98;100.00
61014;BME280;46899;47.542;19.082;2023-02-12T00:07:13;101745.19;;;2.91;100.00
61014;BME280;46899;47.542;19.082;2023-02-12T00:10:16;101743.28;;;2.81;100.00
61014;BME280;46899;47.542;19.082;2023-02-12T00:13:19;101741.81;;;2.92;100.00
61014;BME280;46899;47.542;19.082;2023-02-12T00:16:22;101746.53;;;3.18;100.00
61014;BME280;46899;47.542;19.082;2023-02-12T00:19:25;101754.66;;;3.41;100.00
61014;BME280;46899;47.542;19.082;2023-02-12T00:22:27;101737.53;;;3.43;100.00
61014;BME280;46899;47.542;19.082;2023-02-12T00:25:30;101742.84;;;3.52;100.00
61014;BME280;46899;47.542;19.082;2023-02-12T00:28:34;101747.91;;;3.46;100.00
61014;BME280;46899;47.542;19.082;2023-02-12T00:31:36;101735.94;;;3.51;100.00
61014;BME280;46899;47.542;19.082;2023-02-12T00:34:39;101741.94;;;3.49;100.00
61014;BME280;46899;47.542;19.082;2023-02-12T00:37:42;101743.66;;;3.51;100.00
61014;BME280;46899;47.542;19.082;2023-02-12T00:40:45;101737.59;;;3.46;100.00
61014;BME280;46899;47.542;19.082;2023-02-12T00:43:47;101742.00;;;3.53;100.00
61014;BME280;46899;47.542;19.082;2023-02-12T00:46:50;101745.31;;;3.46;100.00
61014;BME280;46899;47.542;19.082;2023-02-12T00:49:52;101730.78;;;3.48;100.00
61014;BME280;46899;47.542;19.082;2023-02-12T00:52:55;101729.84;;;3.44;100.00
61014;BME280;46899;47.542;19.082;2023-02-12T00:55:57;101734.13;;;3.44;100.00
61014;BME280;46899;47.542;19.082;2023-02-12T00:59:00;101729.63;;;3.31;100.00
61014;BME280;46899;47.542;19.082;2023-02-12T01:02:04;101734.56;;;3.20;100.00
61014;BME280;46899;47.542;19.082;2023-02-12T01:05:07;101740.62;;;3.22;100.00
61014;BME280;46899;47.542;19.082;2023-02-12T01:08:11;101747.34;;;3.16;100.00
61014;BME280;46899;47.542;19.082;2023-02-12T01:11:13;101753.50;;;3.22;100.00
61014;BME280;46899;47.542;19.082;2023-02-12T01:14:16;101758.66;;;3.24;100.00
61014;BME280;46899;47.542;19.082;2023-02-12T01:17:19;101748.44;;;3.28;100.00
61014;BME280;46899;47.542;19.082;2023-02-12T01:20:22;101743.97;;;3.17;100.00
61014;BME280;46899;47.542;19.082;2023-02-12T01:23:25;101750.00;;;3.19;100.00
61014;BME280;46899;47.542;19.082;2023-02-12T01:26:28;101740.50;;;3.15;100.00
61014;BME280;46899;47.542;19.082;2023-02-12T01:29:31;101749.00;;;3.11;100.00
61014;BME280;46899;47.542;19.082;2023-02-12T01:32:35;101739.41;;;3.02;100.00
61014;BME280;46899;47.542;19.082;2023-02-12T01:35:37;101724.94;;;3.09;100.00
61014;BME280;46899;47.542;19.082;2023-02-12T01:38:41;101726.62;;;3.07;100.00
61014;BME280;46899;47.542;19.082;2023-02-12T01:41:44;101724.94;;;3.09;100.00
61014;BME280;46899;47.542;19.082;2023-02-12T01:48:08;101710.50;;;3.15;100.00
61014;BME280;46899;47.542;19.082;2023-02-12T01:51:11;101705.31;;;3.14;100.00
61014;BME280;46899;47.542;19.082;2023-02-12T01:54:16;101700.22;;;3.15;100.00
61014;BME280;46899;47.542;19.082;2023-02-12T01:57:19;101703.63;;;3.16;100.00
61014;BME280;46899;47.542;19.082;2023-02-12T02:00:22;101706.22;;;3.16;100.00
61014;BME280;46899;47.542;19.082;2023-02-12T02:03:26;101709.69;;;3.18;100.00
61014;BME280;46899;47.542;19.082;2023-02-12T02:06:30;101716.47;;;3.13;100.00
61014;BME280;46899;47.542;19.082;2023-02-12T02:09:35;101718.88;;;3.04;100.00
61014;BME280;46899;47.542;19.082;2023-02-12T02:12:38;101711.19;;;3.07;100.00
61014;BME280;46899;47.542;19.082;2023-02-12T02:16:01;101717.22;;;3.09;100.00
61014;BME280;46899;47.542;19.082;2023-02-12T02:19:09;101721.53;;;3.08;100.00
61014;BME280;46899;47.542;19.082;2023-02-12T02:34:47;101750.72;;;3.10;100.00
61014;BME280;46899;47.542;19.082;2023-02-12T02:41:19;101742.19;;;3.13;100.00
61014;BME280;46899;47.542;19.082;2023-02-12T02:44:32;101741.31;;;3.14;100.00
61014;BME280;46899;47.542;19.082;2023-02-12T02:47:39;101750.78;;;3.15;100.00
61014;BME280;46899;47.542;19.082;2023-02-12T02:50:43;101760.19;;;3.14;100.00
61014;BME280;46899;47.542;19.082;2023-02-12T02:54:25;101755.87;;;3.13;100.00
61014;BME280;46899;47.542;19.082;2023-02-12T02:57:40;101755.78;;;3.06;100.00
61014;BME280;46899;47.542;19.082;2023-02-12T03:00:48;101747.16;;;3.04;100.00
61014;BME280;46899;47.542;19.082;2023-02-12T03:07:05;101759.22;;;3.08;100.00
61014;BME280;46899;47.542;19.082;2023-02-12T03:10:15;101768.56;;;3.04;100.00
61014;BME280;46899;47.542;19.082;2023-02-12T03:13:27;101767.75;;;3.05;100.00
61014;BME280;46899;47.542;19.082;2023-02-12T03:16:32;101774.66;;;3.08;100.00
61014;BME280;46899;47.542;19.082;2023-02-12T03:19:38;101780.53;;;3.02;100.00
61014;BME280;46899;47.542;19.082;2023-02-12T03:22:45;101779.66;;;3.02;100.00
61014;BME280;46899;47.542;19.082;2023-02-12T03:28:58;101795.25;;;3.09;100.00
61014;BME280;46899;47.542;19.082;2023-02-12T03:32:08;101786.72;;;3.12;100.00
61014;BME280;46899;47.542;19.082;2023-02-12T03:35:22;101794.38;;;3.09;100.00
61014;BME280;46899;47.542;19.082;2023-02-12T03:38:33;101803.69;;;3.02;100.00
61014;BME280;46899;47.542;19.082;2023-02-12T03:41:42;101813.16;;;3.06;100.00
61014;BME280;46899;47.542;19.082;2023-02-12T03:44:47;101804.53;;;3.03;100.00
61014;BME280;46899;47.542;19.082;2023-02-12T03:51:22;101818.31;;;3.06;100.00
61014;BME280;46899;47.542;19.082;2023-02-12T03:54:26;101813.13;;;3.03;100.00
61014;BME280;46899;47.542;19.082;2023-02-12T03:57:32;101817.41;;;3.03;100.00
61014;BME280;46899;47.542;19.082;2023-02-12T04:00:36;101820.00;;;3.04;100.00
61014;BME280;46899;47.542;19.082;2023-02-12T04:03:40;101826.03;;;3.06;100.00
61014;BME280;46899;47.542;19.082;2023-02-12T04:06:43;101831.16;;;3.05;100.00
61014;BME280;46899;47.542;19.082;2023-02-12T04:09:47;101835.56;;;3.10;100.00
61014;BME280;46899;47.542;19.082;2023-02-12T04:18:58;101849.41;;;3.18;100.00
61014;BME280;46899;47.542;19.082;2023-02-12T04:25:10;101854.53;;;3.17;100.00
61014;BME280;46899;47.542;19.082;2023-02-12T04:31:24;101879.28;;;3.13;100.00
61014;BME280;46899;47.542;19.082;2023-02-12T04:34:34;101875.81;;;3.10;100.00
61014;BME280;46899;47.542;19.082;2023-02-12T04:37:41;101875.00;;;3.12;100.00
61014;BME280;46899;47.542;19.082;2023-02-12T04:40:46;101869.84;;;3.11;100.00
61014;BME280;46899;47.542;19.082;2023-02-12T04:43:49;101887.78;;;3.08;100.00
61014;BME280;46899;47.542;19.082;2023-02-12T04:46:51;101881.88;;;3.13;100.00
61014;BME280;46899;47.542;19.082;2023-02-12T04:49:54;101895.50;;;3.09;100.00
61014;BME280;46899;47.542;19.082;2023-02-12T04:52:56;101896.31;;;3.07;100.00
61014;BME280;46899;47.542;19.082;2023-02-12T04:55:59;101901.28;;;2.98;100.00
61014;BME280;46899;47.542;19.082;2023-02-12T04:59:01;101908.09;;;2.97;100.00
61014;BME280;46899;47.542;19.082;2023-02-12T05:02:09;101905.72;;;3.06;100.00
61014;BME280;46899;47.542;19.082;2023-02-12T05:05:12;101908.34;;;3.08;100.00
61014;BME280;46899;47.542;19.082;2023-02-12T05:08:14;101921.16;;;3.06;100.00
61014;BME280;46899;47.542;19.082;2023-02-12T05:11:17;101921.00;;;2.99;100.00
61014;BME280;46899;47.542;19.082;2023-02-12T05:14:19;101933.62;;;2.88;100.00
61014;BME280;46899;47.542;19.082;2023-02-12T05:17:25;101932.75;;;2.88;100.00
61014;BME280;46899;47.542;19.082;2023-02-12T05:20:27;101933.41;;;2.78;100.00
61014;BME280;46899;47.542;19.082;2023-02-12T05:23:33;101936.06;;;2.82;100.00
61014;BME280;46899;47.542;19.082;2023-02-12T05:26:36;101950.69;;;2.85;100.00
61014;BME280;46899;47.542;19.082;2023-02-12T05:29:38;101965.53;;;2.96;100.00
61014;BME280;46899;47.542;19.082;2023-02-12T05:32:41;101967.94;;;2.90;100.00
61014;BME280;46899;47.542;19.082;2023-02-12T05:35:43;101967.91;;;2.87;100.00
61014;BME280;46899;47.542;19.082;2023-02-12T05:38:46;101958.56;;;2.92;100.00
61014;BME280;46899;47.542;19.082;2023-02-12T05:41:49;101973.06;;;2.89;100.00
61014;BME280;46899;47.542;19.082;2023-02-12T05:44:51;101971.25;;;2.85;100.00
61014;BME280;46899;47.542;19.082;2023-02-12T05:47:54;101975.66;;;2.90;100.00
61014;BME280;46899;47.542;19.082;2023-02-12T05:51:00;101975.00;;;2.99;100.00
61014;BME280;46899;47.542;19.082;2023-02-12T05:54:04;101985.41;;;3.05;100.00
61014;BME280;46899;47.542;19.082;2023-02-12T05:57:06;101992.09;;;2.97;100.00
61014;BME280;46899;47.542;19.082;2023-02-12T06:00:10;101996.37;;;2.96;100.00
61014;BME280;46899;47.542;19.082;2023-02-12T06:03:13;102001.44;;;2.93;100.00
61014;BME280;46899;47.542;19.082;2023-02-12T06:06:15;102018.81;;;3.03;100.00
61014;BME280;46899;47.542;19.082;2023-02-12T06:09:18;102024.81;;;3.04;100.00
61014;BME280;46899;47.542;19.082;2023-02-12T06:12:21;102019.69;;;3.04;100.00
61014;BME280;46899;47.542;19.082;2023-02-12T06:15:23;102019.44;;;2.95;100.00
61014;BME280;46899;47.542;19.082;2023-02-12T06:18:26;102021.06;;;2.90;100.00
61014;BME280;46899;47.542;19.082;2023-02-12T06:21:29;102022.00;;;2.93;100.00
61014;BME280;46899;47.542;19.082;2023-02-12T06:24:32;102029.69;;;2.92;100.00
61014;BME280;46899;47.542;19.082;2023-02-12T06:27:34;102028.91;;;2.96;100.00
61014;BME280;46899;47.542;19.082;2023-02-12T06:30:37;102028.00;;;2.94;100.00
61014;BME280;46899;47.542;19.082;2023-02-12T06:33:39;102040.88;;;2.95;100.00
61014;BME280;46899;47.542;19.082;2023-02-12T06:36:43;102047.13;;;3.06;100.00
61014;BME280;46899;47.542;19.082;2023-02-12T06:39:45;102041.16;;;3.07;100.00
61014;BME280;46899;47.542;19.082;2023-02-12T06:42:48;102044.63;;;3.08;100.00
61014;BME280;46899;47.542;19.082;2023-02-12T06:45:51;102062.12;;;3.25;100.00
61014;BME280;46899;47.542;19.082;2023-02-12T06:48:55;102061.53;;;3.37;100.00
61014;BME280;46899;47.542;19.082;2023-02-12T06:51:57;102068.72;;;3.52;100.00
61014;BME280;46899;47.542;19.082;2023-02-12T06:55:03;102074.56;;;3.43;100.00
61014;BME280;46899;47.542;19.082;2023-02-12T06:58:06;102076.84;;;3.31;100.00
61014;BME280;46899;47.542;19.082;2023-02-12T07:04:14;102086.25;;;3.30;100.00
61014;BME280;46899;47.542;19.082;2023-02-12T07:07:17;102083.63;;;3.27;100.00
61014;BME280;46899;47.542;19.082;2023-02-12T07:10:20;102087.87;;;3.25;100.00
61014;BME280;46899;47.542;19.082;2023-02-12T07:13:22;102100.00;;;3.31;100.00
61014;BME280;46899;47.542;19.082;2023-02-12T07:16:25;102101.19;;;3.45;100.00
61014;BME280;46899;47.542;19.082;2023-02-12T07:19:28;102097.22;;;3.61;100.00
61014;BME280;46899;47.542;19.082;2023-02-12T07:22:31;102111.75;;;3.57;100.00
61014;BME280;46899;47.542;19.082;2023-02-12T07:25:36;102117.28;;;3.75;100.00
61014;BME280;46899;47.542;19.082;2023-02-12T07:28:39;102115.69;;;4.24;100.00
61014;BME280;46899;47.542;19.082;2023-02-12T07:31:42;102132.84;;;4.68;100.00
61014;BME280;46899;47.542;19.082;2023-02-12T07:34:45;102126.50;;;5.00;100.00
61014;BME280;46899;47.542;19.082;2023-02-12T07:37:48;102124.91;;;5.08;100.00
61014;BME280;46899;47.542;19.082;2023-02-12T07:40:51;102134.03;;;6.02;100.00
61014;BME280;46899;47.542;19.082;2023-02-12T07:43:58;102133.78;;;7.69;94.76
61014;BME280;46899;47.542;19.082;2023-02-12T07:47:01;102136.78;;;8.85;84.16
61014;BME280;46899;47.542;19.082;2023-02-12T07:50:05;102155.72;;;8.45;84.73
61014;BME280;46899;47.542;19.082;2023-02-12T07:53:08;102141.94;;;8.88;82.86
61014;BME280;46899;47.542;19.082;2023-02-12T07:56:12;102150.59;;;9.02;80.43
61014;BME280;46899;47.542;19.082;2023-02-12T07:59:16;102146.31;;;9.13;79.92
61014;BME280;46899;47.542;19.082;2023-02-12T08:02:19;102144.53;;;8.70;82.50
61014;BME280;46899;47.542;19.082;2023-02-12T08:05:22;102140.97;;;9.89;75.50
61014;BME280;46899;47.542;19.082;2023-02-12T08:08:24;102152.19;;;10.00;74.28
61014;BME280;46899;47.542;19.082;2023-02-12T08:11:27;102157.53;;;9.45;75.92
61014;BME280;46899;47.542;19.082;2023-02-12T08:14:30;102157.47;;;8.53;80.91
61014;BME280;46899;47.542;19.082;2023-02-12T08:17:33;102163.47;;;8.33;82.43
61014;BME280;46899;47.542;19.082;2023-02-12T08:20:35;102161.56;;;8.01;85.36
61014;BME280;46899;47.542;19.082;2023-02-12T08:23:38;102168.44;;;7.90;87.37
61014;BME280;46899;47.542;19.082;2023-02-12T08:26:41;102165.00;;;7.91;87.28
61014;BME280;46899;47.542;19.082;2023-02-12T08:29:43;102169.41;;;8.13;88.42
61014;BME280;46899;47.542;19.082;2023-02-12T08:32:47;102169.63;;;9.49;79.92
61014;BME280;46899;47.542;19.082;2023-02-12T08:35:58;102171.78;;;10.72;71.54
61014;BME280;46899;47.542;19.082;2023-02-12T08:39:02;102184.00;;;12.46;63.67
61014;BME280;46899;47.542;19.082;2023-02-12T08:42:04;102185.56;;;11.91;62.53
61014;BME280;46899;47.542;19.082;2023-02-12T08:45:07;102176.37;;;10.26;69.44
61014;BME280;46899;47.542;19.082;2023-02-12T08:48:10;102189.56;;;9.29;74.50
61014;BME280;46899;47.542;19.082;2023-02-12T08:51:16;102187.81;;;8.86;78.34
61014;BME280;46899;47.542;19.082;2023-02-12T08:54:21;102188.63;;;8.58;80.96
61014;BME280;46899;47.542;19.082;2023-02-12T08:57:24;102189.44;;;8.40;83.39
61014;BME280;46899;47.542;19.082;2023-02-12T09:00:27;102186.00;;;8.43;83.35
61014;BME280;46899;47.542;19.082;2023-02-12T09:03:29;102193.81;;;8.59;81.01
61014;BME280;46899;47.542;19.082;2023-02-12T09:06:33;102209.41;;;8.64;79.98
61014;BME280;46899;47.542;19.082;2023-02-12T09:09:35;102210.28;;;8.75;79.11
61014;BME280;46899;47.542;19.082;2023-02-12T09:12:38;102216.34;;;8.80;79.01
61014;BME280;46899;47.542;19.082;2023-02-12T09:15:42;102215.50;;;8.79;74.85
61014;BME280;46899;47.542;19.082;2023-02-12T09:18:46;102229.38;;;8.92;74.77
61014;BME280;46899;47.542;19.082;2023-02-12T09:21:50;102235.41;;;8.85;74.04
61014;BME280;46899;47.542;19.082;2023-02-12T09:24:56;102227.66;;;8.99;73.43
61014;BME280;46899;47.542;19.082;2023-02-12T09:27:59;102235.41;;;9.00;73.24
61014;BME280;46899;47.542;19.082;2023-02-12T09:31:09;102239.78;;;9.04;73.68
61014;BME280;46899;47.542;19.082;2023-02-12T09:34:12;102239.78;;;9.09;73.94
61014;BME280;46899;47.542;19.082;2023-02-12T09:37:15;102243.25;;;9.17;71.48
61014;BME280;46899;47.542;19.082;2023-02-12T09:40:19;102250.16;;;9.19;70.96
61014;BME280;46899;47.542;19.082;2023-02-12T09:50:00;102251.03;;;9.24;70.50
61014;BME280;46899;47.542;19.082;2023-02-12T09:53:04;102247.56;;;9.37;71.11
61014;BME280;46899;47.542;19.082;2023-02-12T09:56:15;102245.84;;;9.50;69.71
61014;BME280;46899;47.542;19.082;2023-02-12T10:02:31;102253.66;;;9.53;69.31
61014;BME280;46899;47.542;19.082;2023-02-12T10:05:58;102256.25;;;9.45;69.77
61014;BME280;46899;47.542;19.082;2023-02-12T10:09:13;102251.06;;;9.51;69.68
61014;BME280;46899;47.542;19.082;2023-02-12T10:12:24;102253.66;;;9.62;67.91
61014;BME280;46899;47.542;19.082;2023-02-12T10:15:36;102264.91;;;9.62;68.59
61014;BME280;46899;47.542;19.082;2023-02-12T10:18:42;102271.84;;;9.70;68.13
61014;BME280;46899;47.542;19.082;2023-02-12T10:25:08;102270.09;;;9.72;67.76
61014;BME280;46899;47.542;19.082;2023-02-12T10:28:20;102270.06;;;9.90;66.60
61014;BME280;46899;47.542;19.082;2023-02-12T10:31:29;102276.16;;;9.89;65.34
61014;BME280;46899;47.542;19.082;2023-02-12T10:34:34;102282.19;;;9.97;64.75
61014;BME280;46899;47.542;19.082;2023-02-12T10:40:40;102273.53;;;9.92;65.65
61014;BME280;46899;47.542;19.082;2023-02-12T10:43:44;102278.72;;;10.16;64.71
61014;BME280;46899;47.542;19.082;2023-02-12T10:46:47;102280.44;;;10.26;62.67
61014;BME280;46899;47.542;19.082;2023-02-12T10:49:59;102277.81;;;10.32;62.33
61014;BME280;46899;47.542;19.082;2023-02-12T10:53:02;102270.87;;;10.40;61.71
61014;BME280;46899;47.542;19.082;2023-02-12T10:56:12;102278.66;;;10.43;61.37
61014;BME280;46899;47.542;19.082;2023-02-12T10:59:21;102270.78;;;10.55;60.16
61014;BME280;46899;47.542;19.082;2023-02-12T11:02:28;102274.94;;;10.98;59.14
61014;BME280;46899;47.542;19.082;2023-02-12T11:05:33;102274.84;;;11.11;57.44
61014;BME280;46899;47.542;19.082;2023-02-12T11:08:37;102267.06;;;11.09;57.87
61014;BME280;46899;47.542;19.082;2023-02-12T11:11:41;102273.00;;;11.28;56.25
61014;BME280;46899;47.542;19.082;2023-02-12T11:14:53;102286.16;;;11.05;57.44
61014;BME280;46899;47.542;19.082;2023-02-12T11:21:06;102279.50;;;10.50;57.78
61014;BME280;46899;47.542;19.082;2023-02-12T11:24:20;102275.19;;;10.37;59.83
61014;BME280;46899;47.542;19.082;2023-02-12T11:27:24;102279.50;;;10.57;58.50
61014;BME280;46899;47.542;19.082;2023-02-12T11:30:29;102285.56;;;10.53;58.64
61014;BME280;46899;47.542;19.082;2023-02-12T11:33:33;102278.53;;;10.72;57.03
61014;BME280;46899;47.542;19.082;2023-02-12T11:36:36;102275.91;;;10.78;58.19
61014;BME280;46899;47.542;19.082;2023-02-12T11:39:44;102283.59;;;10.97;57.21
61014;BME280;46899;47.542;19.082;2023-02-12T11:42:49;102279.22;;;11.06;57.44
61014;BME280;46899;47.542;19.082;2023-02-12T11:45:53;102278.06;;;11.49;56.15
61014;BME280;46899;47.542;19.082;2023-02-12T11:48:58;102277.25;;;11.38;55.68
61014;BME280;46899;47.542;19.082;2023-02-12T11:52:02;102280.44;;;11.78;55.49
61014;BME280;46899;47.542;19.082;2023-02-12T11:55:06;102277.84;;;11.79;54.74
61014;BME280;46899;47.542;19.082;2023-02-12T12:04:23;102272.34;;;10.95;57.04
61014;BME280;46899;47.542;19.082;2023-02-12T12:07:30;102274.13;;;10.86;57.87
61014;BME280;46899;47.542;19.082;2023-02-12T12:10:40;102272.56;;;10.47;58.92
61014;BME280;46899;47.542;19.082;2023-02-12T12:13:47;102274.28;;;10.51;58.28
61014;BME280;46899;47.542;19.082;2023-02-12T12:16:55;102268.31;;;10.25;59.93
61014;BME280;46899;47.542;19.082;2023-02-12T12:20:20;102263.06;;;10.37;59.16
61014;BME280;46899;47.542;19.082;2023-02-12T12:23:25;102266.56;;;10.33;60.17
61014;BME280;46899;47.542;19.082;2023-02-12T12:26:32;102259.53;;;10.56;59.35
61014;BME280;46899;47.542;19.082;2023-02-12T12:29:57;102257.56;;;10.97;58.53
61014;BME280;46899;47.542;19.082;2023-02-12T12:33:03;102260.78;;;11.36;56.03
61014;BME280;46899;47.542;19.082;2023-02-12T12:45:51;102258.06;;;11.49;55.57
61014;BME280;46899;47.542;19.082;2023-02-12T12:49:12;102257.25;;;11.41;55.37
61014;BME280;46899;47.542;19.082;2023-02-12T12:52:22;102258.81;;;11.68;54.82
61014;BME280;46899;47.542;19.082;2023-02-12T12:58:53;102256.03;;;11.85;54.14
61014;BME280;46899;47.542;19.082;2023-02-12T13:15:23;102251.66;;;10.62;61.09
61014;BME280;46899;47.542;19.082;2023-02-12T13:24:49;102263.13;;;10.10;64.13
61014;BME280;46899;47.542;19.082;2023-02-12T13:27:58;102266.59;;;10.18;63.33
61014;BME280;46899;47.542;19.082;2023-02-12T13:31:02;102264.84;;;10.23;63.59
61014;BME280;46899;47.542;19.082;2023-02-12T13:34:17;102263.16;;;9.89;64.33
61014;BME280;46899;47.542;19.082;2023-02-12T13:37:29;102277.87;;;10.08;63.45
61014;BME280;46899;47.542;19.082;2023-02-12T13:40:36;102277.87;;;9.82;64.41
61014;BME280;46899;47.542;19.082;2023-02-12T13:53:41;102283.94;;;9.99;63.39
61014;BME280;46899;47.542;19.082;2023-02-12T13:56:54;102280.50;;;9.84;64.17
61014;BME280;46899;47.542;19.082;2023-02-12T13:59:58;102285.66;;;9.94;63.32
61014;BME280;46899;47.542;19.082;2023-02-12T14:03:06;102290.87;;;9.61;64.46
61014;BME280;46899;47.542;19.082;2023-02-12T14:06:16;102283.97;;;9.42;65.59
61014;BME280;46899;47.542;19.082;2023-02-12T14:09:23;102275.28;;;9.44;65.67
61014;BME280;46899;47.542;19.082;2023-02-12T14:12:32;102282.22;;;9.42;66.11
61014;BME280;46899;47.542;19.082;2023-02-12T14:15:37;102277.91;;;9.46;66.17
61014;BME280;46899;47.542;19.082;2023-02-12T14:18:41;102280.50;;;9.91;64.65
61014;BME280;46899;47.542;19.082;2023-02-12T14:21:43;102287.44;;;9.56;65.38
61014;BME280;46899;47.542;19.082;2023-02-12T14:24:48;102283.09;;;9.72;64.71
61014;BME280;46899;47.542;19.082;2023-02-12T14:27:52;102283.94;;;9.37;65.92
61014;BME280;46899;47.542;19.082;2023-02-12T14:37:31;102287.41;;;9.30;67.50
61014;BME280;46899;47.542;19.082;2023-02-12T14:43:45;102303.88;;;9.25;67.13
61014;BME280;46899;47.542;19.082;2023-02-12T14:50:27;102296.94;;;9.22;67.37
61014;BME280;46899;47.542;19.082;2023-02-12T14:53:31;102306.38;;;9.02;68.14
61014;BME280;46899;47.542;19.082;2023-02-12T14:56:39;102309.81;;;8.89;68.37
61014;BME280;46899;47.542;19.082;2023-02-12T14:59:44;102312.38;;;8.75;69.14
61014;BME280;46899;47.542;19.082;2023-02-12T15:09:10;102314.84;;;8.50;70.78
61014;BME280;46899;47.542;19.082;2023-02-12T15:12:19;102309.56;;;8.35;71.02
61014;BME280;46899;47.542;19.082;2023-02-12T15:15:24;102308.63;;;8.25;71.48
61014;BME280;46899;47.542;19.082;2023-02-12T15:21:35;102313.66;;;8.04;73.26
61014;BME280;46899;47.542;19.082;2023-02-12T15:24:38;102311.03;;;7.99;73.81
61014;BME280;46899;47.542;19.082;2023-02-12T15:27:43;102312.69;;;7.88;74.59
61014;BME280;46899;47.542;19.082;2023-02-12T15:30:46;102310.94;;;7.87;73.96
61014;BME280;46899;47.542;19.082;2023-02-12T15:33:51;102311.72;;;7.76;74.47
61014;BME280;46899;47.542;19.082;2023-02-12T15:36:59;102310.75;;;7.62;75.13
61014;BME280;46899;47.542;19.082;2023-02-12T15:40:03;102303.66;;;7.41;76.09
61014;BME280;46899;47.542;19.082;2023-02-12T15:43:15;102310.44;;;7.28;76.16
61014;BME280;46899;47.542;19.082;2023-02-12T15:46:19;102312.88;;;7.13;77.65
61014;BME280;46899;47.542;19.082;2023-02-12T15:49:30;102320.56;;;7.06;77.11
61014;BME280;46899;47.542;19.082;2023-02-12T15:52:33;102324.56;;;6.81;78.35
61014;BME280;46899;47.542;19.082;2023-02-12T15:55:38;102322.47;;;6.53;80.54
61014;BME280;46899;47.542;19.082;2023-02-12T16:01:53;102330.44;;;6.05;83.49
61014;BME280;46899;47.542;19.082;2023-02-12T16:04:57;102343.84;;;5.84;85.85
61014;BME280;46899;47.542;19.082;2023-02-12T16:07:59;102347.78;;;5.63;86.37
61014;BME280;46899;47.542;19.082;2023-02-12T16:11:03;102352.72;;;5.50;87.46
61014;BME280;46899;47.542;19.082;2023-02-12T16:14:19;102369.63;;;5.33;89.40
61014;BME280;46899;47.542;19.082;2023-02-12T16:20:28;102369.91;;;5.04;91.35
61014;BME280;46899;47.542;19.082;2023-02-12T16:23:32;102364.50;;;4.92;92.55
61014;BME280;46899;47.542;19.082;2023-02-12T16:26:36;102369.69;;;4.93;93.81
61014;BME280;46899;47.542;19.082;2023-02-12T16:29:42;102371.12;;;4.80;94.04
61014;BME280;46899;47.542;19.082;2023-02-12T16:32:47;102379.09;;;4.91;92.89
61014;BME280;46899;47.542;19.082;2023-02-12T16:35:59;102371.88;;;4.75;94.22
61014;BME280;46899;47.542;19.082;2023-02-12T16:39:03;102381.81;;;4.57;95.20
61014;BME280;46899;47.542;19.082;2023-02-12T16:42:09;102376.41;;;4.48;97.07
61014;BME280;46899;47.542;19.082;2023-02-12T16:48:37;102392.25;;;4.26;97.50
61014;BME280;46899;47.542;19.082;2023-02-12T16:51:43;102390.16;;;4.11;98.65
61014;BME280;46899;47.542;19.082;2023-02-12T16:54:46;102409.37;;;3.89;100.00
61014;BME280;46899;47.542;19.082;2023-02-12T16:57:49;102408.22;;;3.77;100.00
61014;BME280;46899;47.542;19.082;2023-02-12T17:00:52;102410.81;;;3.78;100.00
61014;BME280;46899;47.542;19.082;2023-02-12T17:03:57;102414.81;;;3.67;100.00
61014;BME280;46899;47.542;19.082;2023-02-12T17:07:01;102412.81;;;3.57;100.00
61014;BME280;46899;47.542;19.082;2023-02-12T17:10:04;102415.88;;;3.44;100.00
61014;BME280;46899;47.542;19.082;2023-02-12T17:13:07;102418.19;;;3.33;100.00
61014;BME280;46899;47.542;19.082;2023-02-12T17:16:10;102419.72;;;3.27;100.00
61014;BME280;46899;47.542;19.082;2023-02-12T17:19:20;102425.88;;;3.32;100.00
61014;BME280;46899;47.542;19.082;2023-02-12T17:22:24;102422.75;;;3.14;100.00
61014;BME280;46899;47.542;19.082;2023-02-12T17:25:29;102418.22;;;3.05;100.00
61014;BME280;46899;47.542;19.082;2023-02-12T17:28:31;102419.56;;;2.93;100.00
61014;BME280;46899;47.542;19.082;2023-02-12T17:31:34;102426.91;;;2.81;100.00
61014;BME280;46899;47.542;19.082;2023-02-12T17:34:38;102423.25;;;2.72;100.00
61014;BME280;46899;47.542;19.082;2023-02-12T17:37:50;102421.50;;;2.71;100.00
61014;BME280;46899;47.542;19.082;2023-02-12T17:40:53;102418.00;;;2.68;100.00
61014;BME280;46899;47.542;19.082;2023-02-12T17:43:58;102420.28;;;2.59;100.00
61014;BME280;46899;47.542;19.082;2023-02-12T17:47:00;102431.97;;;2.49;100.00
61014;BME280;46899;47.542;19.082;2023-02-12T17:50:05;102432.78;;;2.48;100.00
61014;BME280;46899;47.542;19.082;2023-02-12T17:53:08;102442.12;;;2.46;100.00
61014;BME280;46899;47.542;19.082;2023-02-12T17:56:12;102443.84;;;2.46;100.00
61014;BME280;46899;47.542;19.082;2023-02-12T17:59:16;102443.53;;;2.37;100.00
61014;BME280;46899;47.542;19.082;2023-02-12T18:02:19;102441.72;;;2.33;100.00
61014;BME280;46899;47.542;19.082;2023-02-12T18:05:22;102444.03;;;2.25;100.00
61014;BME280;46899;47.542;19.082;2023-02-12T18:08:25;102446.31;;;2.16;100.00
61014;BME280;46899;47.542;19.082;2023-02-12T18:11:28;102447.63;;;2.05;100.00
61014;BME280;46899;47.542;19.082;2023-02-12T18:14:32;102459.53;;;2.03;100.00
61014;BME280;46899;47.542;19.082;2023-02-12T18:17:34;102459.34;;;1.97;100.00
61014;BME280;46899;47.542;19.082;2023-02-12T18:20:41;102453.94;;;1.89;100.00
61014;BME280;46899;47.542;19.082;2023-02-12T18:23:44;102464.78;;;1.81;100.00